createdAt,value
2023-03-26T00:00:26.673Z,8.04
2023-03-26T00:05:29.569Z,8.03
2023-03-26T00:10:33.230Z,7.94
2023-03-26T00:15:37.983Z,7.91
2023-03-26T00:20:41.496Z,7.86
2023-03-26T00:25:46.079Z,7.86
2023-03-26T00:30:57.341Z,7.83
2023-03-26T00:36:03.887Z,7.85
2023-03-26T00:41:17.930Z,7.90
2023-03-26T00:46:21.149Z,7.98
2023-03-26T00:51:24.306Z,8.01
2023-03-26T00:56:27.388Z,7.95
2023-03-26T01:01:32.541Z,7.93
2023-03-26T01:06:37.840Z,7.92
2023-03-26T01:11:40.914Z,7.89
2023-03-26T01:16:52.652Z,7.83
2023-03-26T01:21:56.346Z,7.69
2023-03-26T01:27:12.161Z,7.50
2023-03-26T01:32:59.016Z,7.29
2023-03-26T01:38:23.337Z,7.14
2023-03-26T01:43:39.179Z,7.04
2023-03-26T01:48:47.280Z,7.00
2023-03-26T01:53:50.639Z,6.99
2023-03-26T01:59:29.484Z,6.91
2023-03-26T02:04:57.917Z,6.85
2023-03-26T02:10:29.583Z,6.93
2023-03-26T02:15:33.563Z,6.91
2023-03-26T02:20:37.779Z,7.03
2023-03-26T02:25:42.789Z,7.12
2023-03-26T02:30:46.036Z,7.13
2023-03-26T02:35:49.325Z,7.13
2023-03-26T02:40:54.519Z,7.10
2023-03-26T02:45:58.412Z,7.07
2023-03-26T02:51:03.051Z,7.05
2023-03-26T02:56:06.954Z,7.05
2023-03-26T03:01:09.995Z,7.00
2023-03-26T03:06:13.473Z,6.91
2023-03-26T03:11:24.633Z,6.79
2023-03-26T03:16:28.678Z,6.67
2023-03-26T03:21:31.784Z,6.58
2023-03-26T03:26:36.592Z,6.50
2023-03-26T03:31:41.334Z,6.44
2023-03-26T03:36:48.757Z,6.42
2023-03-26T03:41:51.733Z,6.41
2023-03-26T03:46:56.098Z,6.41
2023-03-26T03:51:59.091Z,6.37
2023-03-26T03:57:02.302Z,6.33
2023-03-26T04:02:05.402Z,6.29
2023-03-26T04:07:08.406Z,6.29
2023-03-26T04:12:11.515Z,6.22
2023-03-26T04:17:15.490Z,6.24
2023-03-26T04:22:19.480Z,6.28
2023-03-26T04:27:28.239Z,6.35
2023-03-26T04:32:34.324Z,6.45
2023-03-26T04:37:41.205Z,6.40
2023-03-26T04:42:46.944Z,6.40
2023-03-26T04:47:50.953Z,6.41
2023-03-26T04:52:59.537Z,6.43
2023-03-26T04:58:05.602Z,6.60
2023-03-26T05:03:12.415Z,6.79
2023-03-26T05:08:15.688Z,7.09
2023-03-26T05:13:18.671Z,7.35
2023-03-26T05:18:21.678Z,7.59
2023-03-26T05:23:24.718Z,7.79
2023-03-26T05:28:28.356Z,8.09
2023-03-26T05:33:31.437Z,8.32
2023-03-26T05:38:34.429Z,8.49
2023-03-26T05:43:37.439Z,8.60
2023-03-26T05:48:40.967Z,8.73
2023-03-26T05:53:44.129Z,8.81
2023-03-26T05:58:47.623Z,8.90
2023-03-26T06:03:51.628Z,9.09
2023-03-26T06:09:01.474Z,9.32
2023-03-26T06:14:05.894Z,9.46
2023-03-26T06:19:08.944Z,9.47
2023-03-26T06:24:12.474Z,9.64
2023-03-26T06:29:16.129Z,9.98
2023-03-26T06:34:19.076Z,10.27
2023-03-26T06:39:22.297Z,10.44
2023-03-26T06:44:25.499Z,10.57
2023-03-26T06:49:28.565Z,10.69
2023-03-26T06:54:31.522Z,10.82
2023-03-26T06:59:34.558Z,11.05
2023-03-26T07:04:38.084Z,11.35
2023-03-26T07:09:41.475Z,11.56
2023-03-26T07:14:44.431Z,11.71
2023-03-26T07:19:47.386Z,11.79
2023-03-26T07:24:51.105Z,11.97
2023-03-26T07:30:07.003Z,12.23
2023-03-26T07:35:41.091Z,12.53
2023-03-26T07:41:05.224Z,12.78
2023-03-26T07:46:12.891Z,13.13
2023-03-26T07:51:18.763Z,13.50
2023-03-26T07:56:39.946Z,13.72
2023-03-26T08:01:48.960Z,13.96
2023-03-26T08:07:22.974Z,14.04
2023-03-26T08:12:41.150Z,13.82
2023-03-26T08:17:59.939Z,13.27
2023-03-26T08:23:27.803Z,12.84
2023-03-26T08:28:48.720Z,12.61
2023-03-26T08:33:51.851Z,12.59
2023-03-26T08:38:54.948Z,12.55
2023-03-26T08:45:12.417Z,12.62
2023-03-26T08:50:38.192Z,12.80
2023-03-26T08:56:05.688Z,13.43
2023-03-26T09:01:56.071Z,13.81
2023-03-26T09:07:35.853Z,13.97
2023-03-26T09:13:25.708Z,14.13
2023-03-26T09:18:50.825Z,14.24
2023-03-26T09:24:10.927Z,14.20
2023-03-26T09:29:53.631Z,14.01
2023-03-26T09:35:13.244Z,13.74
2023-03-26T09:41:04.201Z,13.59
2023-03-26T09:46:38.014Z,13.53
2023-03-26T09:51:59.044Z,13.54
2023-03-26T09:57:29.242Z,13.77
2023-03-26T10:03:27.023Z,14.49
2023-03-26T10:08:56.598Z,15.40
2023-03-26T10:14:53.442Z,15.85
2023-03-26T10:20:37.844Z,16.46
2023-03-26T10:26:36.654Z,16.95
2023-03-26T10:32:24.803Z,16.99
2023-03-26T10:38:01.640Z,17.96
2023-03-26T10:44:05.187Z,19.04
2023-03-26T10:49:23.557Z,19.04
2023-03-26T10:54:56.328Z,18.41
2023-03-26T11:00:26.227Z,17.36
2023-03-26T11:05:47.438Z,16.82
2023-03-26T11:11:29.982Z,16.51
2023-03-26T11:16:59.088Z,16.12
2023-03-26T11:22:46.628Z,15.98
2023-03-26T11:28:32.752Z,17.09
2023-03-26T11:33:45.605Z,17.89
2023-03-26T11:38:53.178Z,18.25
2023-03-26T11:44:07.222Z,18.67
2023-03-26T11:49:16.850Z,18.82
2023-03-26T11:54:21.180Z,18.24
2023-03-26T11:59:45.289Z,17.83
2023-03-26T12:05:03.030Z,17.27
2023-03-26T12:10:21.569Z,17.33
2023-03-26T12:15:26.181Z,18.52
2023-03-26T12:20:36.708Z,19.77
2023-03-26T12:25:40.146Z,19.74
2023-03-26T12:31:02.491Z,19.32
2023-03-26T12:36:26.437Z,19.03
2023-03-26T12:44:44.554Z,18.42
2023-03-26T12:47:59.338Z,18.49
2023-03-26T12:53:15.390Z,18.08
2023-03-26T12:58:25.672Z,17.19
2023-03-26T13:03:42.186Z,17.09
2023-03-26T13:09:45.717Z,17.13
2023-03-26T13:15:07.954Z,17.08
2023-03-26T13:20:15.044Z,17.07
2023-03-26T13:25:53.995Z,17.61
2023-03-26T13:31:23.208Z,17.42
2023-03-26T13:36:57.471Z,17.70
2023-03-26T13:42:21.967Z,17.64
2023-03-26T13:47:31.451Z,17.54
2023-03-26T13:52:46.811Z,17.22
2023-03-26T13:58:03.492Z,17.01
2023-03-26T14:03:48.484Z,16.72
2023-03-26T14:09:02.944Z,16.71
2023-03-26T14:14:43.515Z,16.96
2023-03-26T14:20:22.872Z,17.98
2023-03-26T14:25:46.840Z,18.33
2023-03-26T14:31:30.103Z,17.79
2023-03-26T14:36:59.162Z,17.81
2023-03-26T14:42:18.094Z,17.83
2023-03-26T14:47:25.877Z,17.82
2023-03-26T14:52:48.910Z,18.23
2023-03-26T14:58:03.946Z,18.38
2023-03-26T15:03:10.070Z,18.02
2023-03-26T15:08:53.418Z,18.03
2023-03-26T15:14:29.847Z,17.90
2023-03-26T15:20:03.482Z,17.69
2023-03-26T15:25:45.766Z,17.62
2023-03-26T15:31:21.837Z,17.69
2023-03-26T15:37:10.812Z,17.92
2023-03-26T15:42:38.131Z,18.16
2023-03-26T15:47:48.609Z,17.95
2023-03-26T15:53:39.307Z,17.46
2023-03-26T15:59:13.374Z,17.12
2023-03-26T16:04:54.238Z,16.78
2023-03-26T16:11:07.889Z,16.45
2023-03-26T16:16:25.011Z,16.04
2023-03-26T16:21:32.737Z,15.69
2023-03-26T16:26:45.558Z,15.38
2023-03-26T16:32:09.929Z,15.11
2023-03-26T16:37:32.231Z,14.87
2023-03-26T16:42:41.696Z,14.67
2023-03-26T16:48:01.637Z,14.49
2023-03-26T16:53:29.862Z,14.31
2023-03-26T16:59:10.218Z,14.11
2023-03-26T17:04:24.877Z,13.93
2023-03-26T17:10:14.828Z,13.77
2023-03-26T17:16:13.580Z,13.51
2023-03-26T17:21:46.891Z,13.42
2023-03-26T17:27:17.363Z,13.32
2023-03-26T17:32:21.617Z,13.16
2023-03-26T17:37:26.439Z,13.03
2023-03-26T17:42:32.835Z,12.92
2023-03-26T17:48:16.172Z,12.85
2023-03-26T17:53:37.890Z,12.82
2023-03-26T17:58:52.725Z,12.82
2023-03-26T18:04:00.493Z,12.86
2023-03-26T18:09:45.143Z,12.94
2023-03-26T18:14:55.457Z,13.00
2023-03-26T18:20:10.034Z,13.01
2023-03-26T18:25:27.202Z,13.07
2023-03-26T18:30:30.516Z,13.05
2023-03-26T18:35:55.701Z,13.13
2023-03-26T18:40:59.330Z,13.07
2023-03-26T18:46:04.196Z,13.07
2023-03-26T18:51:07.966Z,12.97
2023-03-26T18:56:42.307Z,12.86
2023-03-26T19:01:47.493Z,12.80
2023-03-26T19:06:55.211Z,12.72
2023-03-26T19:12:16.408Z,12.73
2023-03-26T19:17:19.524Z,12.72
2023-03-26T19:22:24.763Z,12.69
2023-03-26T19:27:28.311Z,12.64
2023-03-26T19:32:35.139Z,12.58
2023-03-26T19:37:51.396Z,12.51
2023-03-26T19:42:54.145Z,12.42
2023-03-26T19:48:13.903Z,12.29
2023-03-26T19:53:29.988Z,12.25
2023-03-26T19:58:32.993Z,12.22
2023-03-26T20:03:43.127Z,12.20
2023-03-26T20:08:51.338Z,12.23
2023-03-26T20:13:54.265Z,12.19
2023-03-26T20:18:58.416Z,12.18
2023-03-26T20:24:01.950Z,12.14
2023-03-26T20:29:06.010Z,12.11
2023-03-26T20:34:20.103Z,12.15
2023-03-26T20:39:26.418Z,12.13
2023-03-26T20:44:30.896Z,12.11
2023-03-26T20:49:33.660Z,12.07
2023-03-26T20:54:37.028Z,11.97
2023-03-26T20:59:39.980Z,11.92
2023-03-26T21:04:42.990Z,11.78
2023-03-26T21:09:48.836Z,11.63
2023-03-26T21:14:52.336Z,11.50
2023-03-26T21:20:08.099Z,11.46
2023-03-26T21:25:32.322Z,11.39
2023-03-26T21:30:35.781Z,11.26
2023-03-26T21:35:39.515Z,10.97
2023-03-26T21:40:49.683Z,10.67
2023-03-26T21:46:00.611Z,10.51
2023-03-26T21:51:05.791Z,10.45
2023-03-26T21:56:33.409Z,10.42
2023-03-26T22:01:54.710Z,10.41
2023-03-26T22:07:18.761Z,10.40
2023-03-26T22:12:22.238Z,10.40
2023-03-26T22:17:27.795Z,10.39
2023-03-26T22:22:30.948Z,10.32
2023-03-26T22:27:34.740Z,10.23
2023-03-26T22:32:48.548Z,10.17
2023-03-26T22:37:51.950Z,10.07
2023-03-26T22:43:04.060Z,9.92
2023-03-26T22:48:07.579Z,9.76
2023-03-26T22:53:10.443Z,9.67
2023-03-26T22:58:13.391Z,9.52
2023-03-26T23:03:16.421Z,9.42
2023-03-26T23:08:20.551Z,9.37
2023-03-26T23:13:25.442Z,9.28
2023-03-26T23:18:29.247Z,9.22
2023-03-26T23:23:34.811Z,9.13
2023-03-26T23:28:38.515Z,9.10
2023-03-26T23:33:46.173Z,9.07
2023-03-26T23:38:51.621Z,9.04
2023-03-26T23:43:55.875Z,9.03
2023-03-26T23:49:03.599Z,9.00
2023-03-26T23:54:07.761Z,8.99
2023-03-26T23:59:10.522Z,8.96
